Terminal Aerodrome Forecast
Issued by NWS

Home | Current Version | Previous Version | Text Only | Print | Product List | Glossary On
Versions: 1 2 3 4 5 6 7 8 9 10 11 12 13 14 15 16 17 18 19 20
000
FTUS43 KLSX 161739
TAFCPS
TAF
KCPS 161739Z 1618/1718 15007KT P6SM VCTS BKN070CB
      TEMPO 1618/1620 3SM -SHRA BKN040
     FM170600 19007KT 3SM -SHRA VCTS BKN035CB
     FM170900 22005KT P6SM VCTS OVC025CB
     FM171400 23007KT P6SM BKN030
     FM171700 25007KT P6SM SCT030=

USA.gov is the U.S. government's official web portal to all federal, state and local government web resources and services.